createdAt,value
2023-03-10T00:00:08.753Z,98900.93
2023-03-10T00:02:36.951Z,98887.83
2023-03-10T00:05:06.791Z,98885.83
2023-03-10T00:07:35.014Z,98885.66
2023-03-10T00:10:03.650Z,98888.19
2023-03-10T00:12:31.866Z,98889.53
2023-03-10T00:15:00.156Z,98890.66
2023-03-10T00:17:28.819Z,98893.48
2023-03-10T00:19:57.339Z,98887.75
2023-03-10T00:22:25.723Z,98878.66
2023-03-10T00:24:53.858Z,98870.59
2023-03-10T00:27:22.169Z,98866.56
2023-03-10T00:29:52.377Z,98852.28
2023-03-10T00:32:20.598Z,98844.21
2023-03-10T00:34:48.914Z,98839.00
2023-03-10T00:37:18.175Z,98837.64
2023-03-10T00:39:49.840Z,98841.84
2023-03-10T00:42:18.032Z,98842.36
2023-03-10T00:44:48.023Z,98841.52
2023-03-10T00:47:16.974Z,98843.02
2023-03-10T00:49:45.264Z,98830.59
2023-03-10T00:52:13.424Z,98823.67
2023-03-10T00:54:42.126Z,98822.52
2023-03-10T00:57:10.471Z,98819.50
2023-03-10T00:59:50.001Z,98817.34
2023-03-10T01:02:19.802Z,98819.88
2023-03-10T01:04:48.367Z,98813.98
2023-03-10T01:07:16.677Z,98817.34
2023-03-10T01:09:44.861Z,98816.83
2023-03-10T01:12:13.063Z,98810.25
2023-03-10T01:14:41.262Z,98810.42
2023-03-10T01:17:09.979Z,98809.73
2023-03-10T01:19:38.157Z,98812.27
2023-03-10T01:22:06.360Z,98811.60
2023-03-10T01:24:34.642Z,98808.91
2023-03-10T01:27:02.821Z,98800.00
2023-03-10T01:29:31.115Z,98791.92
2023-03-10T01:31:59.366Z,98788.23
2023-03-10T01:34:28.014Z,98781.50
2023-03-10T01:36:56.261Z,98778.15
2023-03-10T01:39:24.423Z,98775.62
2023-03-10T01:41:52.612Z,98772.08
2023-03-10T01:44:21.639Z,98771.75
2023-03-10T01:46:52.887Z,98766.69
2023-03-10T01:49:31.301Z,98770.05
2023-03-10T01:52:04.017Z,98764.67
2023-03-10T01:54:42.343Z,98758.46
2023-03-10T01:57:13.910Z,98753.60
2023-03-10T01:59:43.441Z,98752.40
2023-03-10T02:02:12.084Z,98739.77
2023-03-10T02:04:44.044Z,98734.35
2023-03-10T02:07:13.888Z,98729.78
2023-03-10T02:09:45.892Z,98725.40
2023-03-10T02:12:15.269Z,98723.70
2023-03-10T02:14:47.075Z,98724.66
2023-03-10T02:17:17.950Z,98711.03
2023-03-10T02:20:02.535Z,98701.48
2023-03-10T02:22:32.605Z,98693.73
2023-03-10T02:25:07.998Z,98692.71
2023-03-10T02:27:38.291Z,98693.89
2023-03-10T02:30:11.701Z,98694.05
2023-03-10T02:32:42.783Z,98695.90
2023-03-10T02:35:11.900Z,98688.50
2023-03-10T02:37:46.266Z,98682.12
2023-03-10T02:40:34.750Z,98684.81
2023-03-10T02:43:13.678Z,98682.65
2023-03-10T02:45:44.712Z,98667.73
2023-03-10T02:48:16.004Z,98659.69
2023-03-10T02:50:46.843Z,98662.22
2023-03-10T02:53:18.227Z,98659.20
2023-03-10T02:55:46.764Z,98666.94
2023-03-10T02:58:15.447Z,98665.27
2023-03-10T03:00:45.341Z,98647.95
2023-03-10T03:03:16.154Z,98640.73
2023-03-10T03:05:44.751Z,98638.73
2023-03-10T03:08:13.469Z,98643.13
2023-03-10T03:10:43.097Z,98636.59
2023-03-10T03:13:12.351Z,98630.71
2023-03-10T03:15:42.004Z,98624.52
2023-03-10T03:18:10.976Z,98611.57
2023-03-10T03:20:40.439Z,98593.41
2023-03-10T03:23:09.570Z,98586.54
2023-03-10T03:25:40.627Z,98579.13
2023-03-10T03:28:10.984Z,98572.91
2023-03-10T03:30:40.117Z,98570.91
2023-03-10T03:33:08.756Z,98562.83
2023-03-10T03:35:38.134Z,98564.17
2023-03-10T03:38:07.869Z,98562.15
2023-03-10T03:40:39.296Z,98559.80
2023-03-10T03:43:07.705Z,98563.00
2023-03-10T03:45:36.071Z,98550.38
2023-03-10T03:48:04.677Z,98542.48
2023-03-10T03:50:33.447Z,98538.27
2023-03-10T03:53:05.748Z,98540.63
2023-03-10T03:55:35.167Z,98529.04
2023-03-10T03:58:03.882Z,98525.68
2023-03-10T04:00:33.769Z,98526.02
2023-03-10T04:03:03.343Z,98523.84
2023-03-10T04:05:31.807Z,98519.31
2023-03-10T04:08:00.127Z,98512.27
2023-03-10T04:10:29.904Z,98513.43
2023-03-10T04:12:58.239Z,98504.17
2023-03-10T04:15:27.368Z,98484.34
2023-03-10T04:17:57.180Z,98474.77
2023-03-10T04:20:26.129Z,98472.06
2023-03-10T04:22:54.901Z,98477.11
2023-03-10T04:25:26.123Z,98476.95
2023-03-10T04:27:54.533Z,98471.07
2023-03-10T04:30:28.296Z,98474.77
2023-03-10T04:32:59.301Z,98483.83
2023-03-10T04:35:29.042Z,98481.83
2023-03-10T04:37:57.834Z,98476.79
2023-03-10T04:40:26.331Z,98474.77
2023-03-10T04:46:21.830Z,98475.11
2023-03-10T04:48:51.383Z,98460.14
2023-03-10T04:51:19.747Z,98456.95
2023-03-10T04:53:52.369Z,98454.42
2023-03-10T04:56:21.050Z,98447.36
2023-03-10T04:58:49.268Z,98433.73
2023-03-10T05:01:18.012Z,98422.45
2023-03-10T05:03:49.730Z,98422.64
2023-03-10T05:06:21.499Z,98413.57
2023-03-10T05:09:05.399Z,98408.17
2023-03-10T05:11:34.330Z,98405.13
2023-03-10T05:14:03.120Z,98396.56
2023-03-10T05:16:31.481Z,98391.34
2023-03-10T05:18:59.692Z,98370.83
2023-03-10T05:21:29.365Z,98352.67
2023-03-10T05:23:58.735Z,98351.16
2023-03-10T05:26:27.642Z,98368.32
2023-03-10T05:28:56.130Z,98389.33
2023-03-10T05:31:44.760Z,98387.32
2023-03-10T05:34:16.927Z,98382.94
2023-03-10T05:36:46.037Z,98385.62
2023-03-10T05:39:16.440Z,98385.45
2023-03-10T05:41:47.153Z,98373.49
2023-03-10T05:44:15.265Z,98358.52
2023-03-10T05:46:43.559Z,98351.64
2023-03-10T05:49:11.869Z,98345.92
2023-03-10T05:51:40.495Z,98339.85
2023-03-10T05:54:09.187Z,98343.05
2023-03-10T05:56:37.784Z,98347.92
2023-03-10T05:59:06.754Z,98353.30
2023-03-10T06:01:36.728Z,98359.35
2023-03-10T06:04:05.165Z,98356.16
2023-03-10T06:06:34.358Z,98348.60
2023-03-10T06:09:03.934Z,98343.86
2023-03-10T06:11:33.150Z,98340.51
2023-03-10T06:14:01.379Z,98331.26
2023-03-10T06:16:29.742Z,98332.42
2023-03-10T06:18:58.382Z,98325.19
2023-03-10T06:21:28.083Z,98316.42
2023-03-10T06:23:56.350Z,98314.73
2023-03-10T06:26:24.521Z,98309.49
2023-03-10T06:28:53.027Z,98315.37
2023-03-10T06:31:23.760Z,98323.58
2023-03-10T06:33:52.243Z,98322.88
2023-03-10T06:36:21.395Z,98319.15
2023-03-10T06:38:49.756Z,98316.45
2023-03-10T06:41:18.206Z,98301.76
2023-03-10T06:43:47.365Z,98289.45
2023-03-10T06:46:15.929Z,98289.27
2023-03-10T06:48:45.271Z,98297.31
2023-03-10T06:51:17.095Z,98300.81
2023-03-10T06:53:45.396Z,98306.17
2023-03-10T06:56:18.097Z,98292.33
2023-03-10T06:58:47.403Z,98289.95
2023-03-10T07:01:24.939Z,98287.21
2023-03-10T07:03:53.591Z,98278.09
2023-03-10T07:06:22.305Z,98272.85
2023-03-10T07:08:51.112Z,98278.54
2023-03-10T07:11:22.893Z,98270.38
2023-03-10T07:14:43.677Z,98265.63
2023-03-10T07:21:34.303Z,98260.34
2023-03-10T07:24:03.265Z,98246.50
2023-03-10T07:26:31.817Z,98238.70
2023-03-10T07:29:02.015Z,98242.88
2023-03-10T07:31:35.966Z,98247.20
2023-03-10T07:37:58.636Z,98250.46
2023-03-10T07:40:36.221Z,98242.00
2023-03-10T07:46:37.174Z,98236.99
2023-03-10T07:50:22.190Z,98235.92
2023-03-10T07:52:50.864Z,98223.14
2023-03-10T07:55:19.562Z,98213.12
2023-03-10T07:58:12.700Z,98215.56
2023-03-10T08:00:41.420Z,98209.91
2023-03-10T08:03:46.689Z,98201.71
2023-03-10T08:06:20.475Z,98200.58
2023-03-10T08:08:49.326Z,98191.88
2023-03-10T08:14:47.259Z,98190.83
2023-03-10T08:17:15.883Z,98175.42
2023-03-10T08:19:44.286Z,98173.36
2023-03-10T08:22:12.601Z,98179.73
2023-03-10T08:24:41.440Z,98177.52
2023-03-10T08:27:09.634Z,98182.21
2023-03-10T08:29:37.823Z,98177.26
2023-03-10T08:32:07.241Z,98185.33
2023-03-10T08:34:38.941Z,98169.27
2023-03-10T08:37:10.150Z,98170.42
2023-03-10T08:39:39.409Z,98162.98
2023-03-10T08:42:11.079Z,98163.08
2023-03-10T08:44:40.354Z,98155.23
2023-03-10T08:47:10.233Z,98151.30
2023-03-10T08:49:38.511Z,98153.78
2023-03-10T08:52:21.772Z,98164.85
2023-03-10T08:54:50.036Z,98170.09
2023-03-10T08:57:37.336Z,98168.73
2023-03-10T09:00:29.818Z,98160.08
2023-03-10T09:03:00.630Z,98150.55
2023-03-10T09:05:31.327Z,98141.42
2023-03-10T09:08:07.430Z,98145.83
2023-03-10T09:10:36.849Z,98136.99
2023-03-10T09:13:13.618Z,98139.39
2023-03-10T09:15:42.226Z,98122.98
2023-03-10T09:18:12.070Z,98122.50
2023-03-10T09:20:41.379Z,98114.48
2023-03-10T09:23:11.122Z,98120.27
2023-03-10T09:25:40.177Z,98107.09
2023-03-10T09:28:10.862Z,98110.73
2023-03-10T09:30:59.629Z,98105.84
2023-03-10T09:33:28.577Z,98103.02
2023-03-10T09:36:06.483Z,98097.50
2023-03-10T09:38:36.289Z,98096.66
2023-03-10T09:41:38.116Z,98094.75
2023-03-10T09:44:23.919Z,98100.67
2023-03-10T09:47:05.278Z,98098.09
2023-03-10T09:49:38.728Z,98097.73
2023-03-10T09:52:22.182Z,98093.13
2023-03-10T09:54:58.702Z,98082.09
2023-03-10T10:02:02.580Z,98086.38
2023-03-10T10:04:36.671Z,98079.60
2023-03-10T10:07:12.919Z,98074.77
2023-03-10T10:10:29.731Z,98074.05
2023-03-10T10:13:47.111Z,98065.08
2023-03-10T10:16:45.147Z,98057.50
2023-03-10T10:19:18.628Z,98047.52
2023-03-10T10:26:09.029Z,98038.21
2023-03-10T10:28:41.904Z,98036.20
2023-03-10T10:31:17.085Z,98035.39
2023-03-10T10:34:10.021Z,98032.40
2023-03-10T10:36:51.412Z,98031.55
2023-03-10T10:39:28.244Z,98026.80
2023-03-10T10:42:13.582Z,98027.61
2023-03-10T10:44:43.855Z,98023.09
2023-03-10T10:47:26.236Z,98028.13
2023-03-10T10:49:56.296Z,98023.80
2023-03-10T10:52:26.027Z,98032.65
2023-03-10T10:54:59.394Z,98017.82
2023-03-10T10:57:32.286Z,98021.29
2023-03-10T11:00:24.639Z,98016.88
2023-03-10T11:04:12.450Z,98009.01
2023-03-10T11:06:40.899Z,98004.63
2023-03-10T11:09:53.826Z,98003.04
2023-03-10T11:12:49.288Z,98000.65
2023-03-10T11:15:23.976Z,98005.77
2023-03-10T11:17:57.006Z,98002.73
2023-03-10T11:20:32.245Z,97998.33
2023-03-10T11:23:14.585Z,97998.11
2023-03-10T11:25:50.095Z,97994.39
2023-03-10T11:28:40.009Z,97992.08
2023-03-10T11:31:20.245Z,97987.73
2023-03-10T11:33:54.194Z,97985.80
2023-03-10T11:36:38.404Z,97983.92
2023-03-10T11:39:21.404Z,97980.45
2023-03-10T11:42:05.295Z,97969.46
2023-03-10T11:44:38.862Z,97969.90
2023-03-10T11:47:16.682Z,97965.63
2023-03-10T11:49:52.275Z,97957.36
2023-03-10T11:52:25.564Z,97958.49
2023-03-10T11:55:00.774Z,97949.77
2023-03-10T11:57:36.684Z,97951.42
2023-03-10T12:00:18.205Z,97943.41
2023-03-10T12:02:58.820Z,97945.48
2023-03-10T12:05:31.981Z,97941.59
2023-03-10T12:08:04.298Z,97944.37
2023-03-10T12:10:38.189Z,97940.84
2023-03-10T12:13:12.898Z,97939.71
2023-03-10T12:15:42.984Z,97940.79
2023-03-10T12:18:12.004Z,97938.92
2023-03-10T12:20:40.304Z,97930.06
2023-03-10T12:23:39.795Z,97930.86
2023-03-10T12:26:08.178Z,97927.30
2023-03-10T12:28:37.404Z,97925.10
2023-03-10T12:31:07.378Z,97925.10
2023-03-10T12:33:52.721Z,97919.08
2023-03-10T12:36:34.832Z,97922.17
2023-03-10T12:39:37.324Z,97921.88
2023-03-10T12:42:26.328Z,97919.71
2023-03-10T12:45:02.744Z,97917.19
2023-03-10T12:47:43.549Z,97908.31
2023-03-10T12:50:33.050Z,97905.09
2023-03-10T12:53:21.009Z,97910.95
2023-03-10T12:56:23.333Z,97906.95
2023-03-10T12:59:05.152Z,97903.65
2023-03-10T13:01:55.096Z,97897.58
2023-03-10T13:04:26.710Z,97897.27
2023-03-10T13:07:03.041Z,97895.54
2023-03-10T13:09:37.961Z,97895.36
2023-03-10T13:12:16.961Z,97898.21
2023-03-10T13:14:51.000Z,97895.53
2023-03-10T13:17:29.948Z,97893.19
2023-03-10T13:20:51.045Z,97892.50
2023-03-10T13:23:41.845Z,97892.09
2023-03-10T13:26:16.815Z,97898.14
2023-03-10T13:28:52.781Z,97908.98
2023-03-10T13:31:24.378Z,97905.31
2023-03-10T13:35:04.301Z,97910.45
2023-03-10T13:37:32.616Z,97916.33
2023-03-10T13:40:09.790Z,97915.77
2023-03-10T13:42:44.285Z,97911.96
2023-03-10T13:45:23.041Z,97912.30
2023-03-10T13:47:55.650Z,97915.96
2023-03-10T13:50:24.915Z,97916.07
2023-03-10T13:52:56.695Z,97924.31
2023-03-10T13:55:49.632Z,97925.96
2023-03-10T13:58:18.380Z,97928.19
2023-03-10T14:00:49.925Z,97922.25
2023-03-10T14:03:19.643Z,97923.00
2023-03-10T14:10:21.175Z,97921.30
2023-03-10T14:23:38.313Z,97917.16
2023-03-10T14:26:33.508Z,97925.33
2023-03-10T14:29:11.726Z,97924.48
2023-03-10T14:31:42.672Z,97925.09
2023-03-10T14:34:15.665Z,97929.02
2023-03-10T14:36:46.470Z,97924.85
2023-03-10T14:39:18.127Z,97918.85
2023-03-10T14:42:21.919Z,97916.08
2023-03-10T14:44:55.646Z,97916.68
2023-03-10T14:47:50.838Z,97917.69
2023-03-10T14:50:24.255Z,97919.26
2023-03-10T14:52:58.499Z,97918.23
2023-03-10T14:55:41.163Z,97918.32
2023-03-10T14:58:17.923Z,97918.90
2023-03-10T15:00:50.226Z,97917.40
2023-03-10T15:03:23.909Z,97917.20
2023-03-10T15:05:54.887Z,97910.19
2023-03-10T15:08:26.809Z,97907.16
2023-03-10T15:10:58.821Z,97905.13
2023-03-10T15:13:31.033Z,97910.14
2023-03-10T15:16:02.348Z,97907.86
2023-03-10T15:23:59.900Z,97902.20
2023-03-10T15:26:31.561Z,97901.35
2023-03-10T15:29:53.521Z,97902.58
2023-03-10T15:33:12.565Z,97906.92
2023-03-10T15:35:44.331Z,97906.45
2023-03-10T15:38:49.414Z,97905.36
2023-03-10T15:41:47.605Z,97907.44
2023-03-10T15:45:07.747Z,97909.40
2023-03-10T15:52:45.244Z,97910.36
2023-03-10T15:59:10.801Z,97902.25
2023-03-10T16:01:42.082Z,97907.75
2023-03-10T16:04:13.180Z,97904.00
2023-03-10T16:11:26.783Z,97902.60
2023-03-10T16:13:58.004Z,97904.91
2023-03-10T16:17:16.175Z,97902.10
2023-03-10T16:22:59.722Z,97904.48
2023-03-10T16:25:34.346Z,97906.92
2023-03-10T16:28:16.020Z,97907.52
2023-03-10T16:30:53.087Z,97914.05
2023-03-10T16:33:40.350Z,97917.92
2023-03-10T16:36:14.896Z,97923.96
2023-03-10T16:38:46.426Z,97924.77
2023-03-10T16:41:21.187Z,97922.22
2023-03-10T16:43:54.709Z,97920.30
2023-03-10T16:46:32.196Z,97917.66
2023-03-10T16:49:04.078Z,97915.91
2023-03-10T16:51:38.201Z,97916.30
2023-03-10T16:54:12.098Z,97915.34
2023-03-10T16:56:45.675Z,97918.29
2023-03-10T16:59:39.107Z,97918.36
2023-03-10T17:02:14.347Z,97918.54
2023-03-10T17:04:44.765Z,97914.41
2023-03-10T17:07:15.818Z,97914.90
2023-03-10T17:09:47.023Z,97914.33
2023-03-10T17:12:18.512Z,97909.83
2023-03-10T17:14:50.909Z,97908.23
2023-03-10T17:17:22.083Z,97908.14
2023-03-10T17:19:55.049Z,97905.66
2023-03-10T17:22:27.827Z,97901.02
2023-03-10T17:25:03.298Z,97899.93
2023-03-10T17:27:38.175Z,97897.90
2023-03-10T17:30:11.998Z,97895.75
2023-03-10T17:32:42.815Z,97896.41
2023-03-10T17:35:25.801Z,97895.31
2023-03-10T17:38:06.114Z,97890.01
2023-03-10T17:40:41.713Z,97888.17
2023-03-10T17:43:23.237Z,97889.86
2023-03-10T17:46:36.628Z,97895.29
2023-03-10T17:49:07.959Z,97896.23
2023-03-10T17:51:41.055Z,97895.40
2023-03-10T17:54:13.083Z,97895.45
2023-03-10T17:56:44.574Z,97894.96
2023-03-10T17:59:16.540Z,97891.43
2023-03-10T18:01:49.326Z,97886.66
2023-03-10T18:04:20.569Z,97881.59
2023-03-10T18:06:51.929Z,97885.63
2023-03-10T18:09:23.111Z,97883.69
2023-03-10T18:11:55.436Z,97881.27
2023-03-10T18:14:26.988Z,97882.33
2023-03-10T18:16:59.453Z,97884.65
2023-03-10T18:19:30.584Z,97886.40
2023-03-10T18:22:05.811Z,97885.15
2023-03-10T18:24:44.706Z,97883.16
2023-03-10T18:27:16.695Z,97880.37
2023-03-10T18:29:47.868Z,97878.41
2023-03-10T18:32:19.034Z,97875.55
2023-03-10T18:34:50.519Z,97878.42
2023-03-10T18:37:21.529Z,97874.01
2023-03-10T18:39:53.382Z,97869.55
2023-03-10T18:42:24.402Z,97865.46
2023-03-10T18:44:56.081Z,97859.40
2023-03-10T18:47:27.645Z,97848.71
2023-03-10T18:49:59.701Z,97843.35
2023-03-10T18:52:33.082Z,97849.08
2023-03-10T18:55:05.456Z,97848.84
2023-03-10T18:57:36.693Z,97839.48
2023-03-10T19:00:12.432Z,97832.52
2023-03-10T19:02:43.723Z,97834.36
2023-03-10T19:05:19.857Z,97831.03
2023-03-10T19:07:50.868Z,97830.08
2023-03-10T19:10:22.502Z,97827.83
2023-03-10T19:12:53.503Z,97823.90
2023-03-10T19:15:24.912Z,97816.41
2023-03-10T19:17:56.359Z,97815.93
2023-03-10T19:20:27.869Z,97811.03
2023-03-10T19:22:59.989Z,97815.61
2023-03-10T19:25:31.999Z,97812.11
2023-03-10T19:28:03.004Z,97814.48
2023-03-10T19:30:34.196Z,97815.98
2023-03-10T19:33:05.457Z,97816.40
2023-03-10T19:35:36.499Z,97810.73
2023-03-10T19:38:08.236Z,97806.45
2023-03-10T19:40:39.673Z,97804.52
2023-03-10T19:43:10.757Z,97799.25
2023-03-10T19:45:42.376Z,97799.35
2023-03-10T19:48:13.847Z,97803.35
2023-03-10T19:50:44.752Z,97799.91
2023-03-10T19:53:15.486Z,97797.77
2023-03-10T19:55:46.472Z,97797.02
2023-03-10T19:58:18.497Z,97795.40
2023-03-10T20:00:49.975Z,97796.05
2023-03-10T20:03:23.790Z,97793.92
2023-03-10T20:05:54.988Z,97795.74
2023-03-10T20:08:26.346Z,97791.90
2023-03-10T20:11:02.181Z,97786.30
2023-03-10T20:13:35.871Z,97785.27
2023-03-10T20:16:08.623Z,97780.13
2023-03-10T20:18:39.856Z,97776.98
2023-03-10T20:21:11.124Z,97779.80
2023-03-10T20:23:47.532Z,97784.17
2023-03-10T20:26:19.792Z,97785.77
2023-03-10T20:28:51.692Z,97789.34
2023-03-10T20:31:24.407Z,97788.60
2023-03-10T20:33:55.765Z,97793.29
2023-03-10T20:36:26.609Z,97781.16
2023-03-10T20:38:58.010Z,97780.38
2023-03-10T20:41:28.800Z,97765.92
2023-03-10T20:44:00.683Z,97760.30
2023-03-10T20:46:32.817Z,97752.79
2023-03-10T20:49:06.010Z,97753.11
2023-03-10T20:51:37.089Z,97746.45
2023-03-10T20:54:08.119Z,97742.38
2023-03-10T20:56:39.057Z,97736.93
2023-03-10T20:59:10.211Z,97735.39
2023-03-10T21:01:42.585Z,97729.62
2023-03-10T21:04:13.755Z,97723.39
2023-03-10T21:06:47.918Z,97721.77
2023-03-10T21:09:22.323Z,97717.65
2023-03-10T21:11:53.525Z,97722.48
2023-03-10T21:14:27.265Z,97720.06
2023-03-10T21:17:00.041Z,97712.77
2023-03-10T21:19:32.538Z,97709.19
2023-03-10T21:22:09.717Z,97704.66
2023-03-10T21:24:41.374Z,97704.95
2023-03-10T21:27:12.431Z,97700.96
2023-03-10T21:29:43.857Z,97692.73
2023-03-10T21:32:14.722Z,97690.95
2023-03-10T21:34:46.928Z,97682.70
2023-03-10T21:37:17.940Z,97681.30
2023-03-10T21:39:52.679Z,97678.23
2023-03-10T21:42:23.673Z,97669.86
2023-03-10T21:44:55.992Z,97665.86
2023-03-10T21:47:26.753Z,97667.13
2023-03-10T21:49:57.954Z,97661.55
2023-03-10T21:52:28.814Z,97655.26
2023-03-10T21:55:00.526Z,97657.50
2023-03-10T21:57:32.931Z,97655.36
2023-03-10T22:00:04.248Z,97647.81
2023-03-10T22:02:38.987Z,97646.73
2023-03-10T22:05:12.844Z,97637.63
2023-03-10T22:07:44.331Z,97634.67
2023-03-10T22:10:17.885Z,97628.46
2023-03-10T22:12:49.933Z,97625.11
2023-03-10T22:15:23.258Z,97618.38
2023-03-10T22:17:56.833Z,97614.27
2023-03-10T22:20:29.458Z,97615.25
2023-03-10T22:23:00.451Z,97610.77
2023-03-10T22:25:31.508Z,97606.30
2023-03-10T22:28:03.012Z,97603.70
2023-03-10T22:30:33.852Z,97603.98
2023-03-10T22:33:06.924Z,97596.80
2023-03-10T22:35:38.526Z,97597.05
2023-03-10T22:38:09.851Z,97593.60
2023-03-10T22:40:40.931Z,97591.30
2023-03-10T22:43:11.779Z,97590.75
2023-03-10T22:45:42.947Z,97584.04
2023-03-10T22:48:13.847Z,97586.04
2023-03-10T22:50:46.846Z,97579.64
2023-03-10T22:53:19.753Z,97582.31
2023-03-10T22:55:52.045Z,97576.55
2023-03-10T22:58:23.126Z,97577.10
2023-03-10T23:00:53.798Z,97580.25
2023-03-10T23:03:24.835Z,97575.34
2023-03-10T23:05:58.618Z,97581.15
2023-03-10T23:08:29.516Z,97579.02
2023-03-10T23:11:00.224Z,97582.21
2023-03-10T23:13:31.044Z,97586.73
2023-03-10T23:16:02.037Z,97585.27
2023-03-10T23:18:32.826Z,97588.77
2023-03-10T23:21:03.815Z,97588.30
2023-03-10T23:23:35.006Z,97589.36
2023-03-10T23:26:06.233Z,97589.74
2023-03-10T23:28:36.978Z,97586.09
2023-03-10T23:31:08.766Z,97586.09
2023-03-10T23:33:40.737Z,97576.41
2023-03-10T23:36:13.619Z,97579.48
2023-03-10T23:38:44.442Z,97574.66
2023-03-10T23:41:15.385Z,97574.45
2023-03-10T23:43:46.114Z,97576.08
2023-03-10T23:46:16.909Z,97570.35
2023-03-10T23:48:47.693Z,97573.80
2023-03-10T23:51:19.085Z,97571.85
2023-03-10T23:53:49.827Z,97574.67
2023-03-10T23:56:20.619Z,97572.23
2023-03-10T23:58:51.281Z,97573.52
